Share

Guanajuato, Mexico

De Guanajuato International (MMLO) Elev 5968 ft | 20.99 °N, 101.48 °W | Change Station

Current weather conditions updated 57 minutes ago

Mostly Cloudy
Mostly Cloudy
82 °F
Feels Like 82 °F
N
15
Wind Variable Wind from SW
Sunrise 7:25 AM
Sunset 8:04 PM
Moon Waning Gibbous

Tomorrow is forecast to be Cooler than today.

Pressure 29.63 in
Visibility 10.0 miles
Clouds Scattered Clouds 3000 ft
Mostly Cloudy 20000 ft
Dew Point 34 °F
Humidity 17%
Rainfall 0.00 in
Snow Depth Not available.
UV 1 out of 16
Pollen Not available.
Air Quality Not available.
Flu Activity Not available.
METAR MMLO 162349Z 23013KT 10SM SCT030 BKN200 28/01 A3003 RMK SLP033 57007 903 8/508

More Conditions Fewer Conditions

Pressure 29.63 in
Visibility 10.0 miles
Clouds Scattered Clouds 3000 ft
Mostly Cloudy 20000 ft
Dew Point 34 °F
Humidity 17%
Rainfall 0.00 in
Snow Depth Not available.
UV 1 out of 16
Pollen Not available.
Air Quality Not available.
Flu Activity Not available.
METAR MMLO 162349Z 23013KT 10SM SCT030 BKN200 28/01 A3003 RMK SLP033 57007 903 8/508

More Conditions Fewer Conditions

10-Day Forecast

Almanac

Astronomy

Apr. 16, 2014 Rise Set
Actual Time 7:25 AM CDT 8:04 PM CDT
Civil Twilight 7:02 AM CDT 8:27 PM CDT
Nautical Twilight 6:36 AM CDT 8:53 PM CDT
Astronomical Twilight 6:09 AM CDT 9:20 PM CDT
Moon 9:38 PM CDT (4/16) 8:22 AM CDT (4/16)
Length of Visible Light 13h 24m
Length of Day
12h 39m
Tomorrow will be 1m 8s longer.
Waning Gibbous, 97% of the Moon is Illuminated
Today
Waning Gibbous
Apr 22
Last Quarter
Apr 29
New
May 6
First Quarter
May 14
Full

Today's Extremes

Country Highs Country Lows

Community

  • symphony in blue....
    symphony in blue....
  • Dawn Surprise
    Dawn Surprise
  • Yucca delight
    Yucca delight
  • Sunset inside of the Ocean
    Sunset inside of the Ocean
  • Lunar eclipse 15 April 2014
    Lunar eclipse 15 April 2014

WunderPhotos

Upload Photos

1,701,768 photos uploaded!

WunderBlogs® & News

Nearby

Snow Depth

Not available.

Coastal Water Temperatures

Place Temperature
No Stations Reporting

Earthquake Activity

City Distance Mag. Time & Date
No recent earthquake activity has been reported nearby.
Minimum magnitude displayed is 2.5.

Nearby Weather Stations

There are no personal weather stations in this area.

What do you think?

We're not finished. Please let us know what you like, what you don't like, and what you are still missing.